createdAt,value
2019-05-19T00:00:54.368Z,9.80
2019-05-19T00:01:54.367Z,8.30
2019-05-19T00:02:54.385Z,8.90
2019-05-19T00:03:54.335Z,10.50
2019-05-19T00:04:54.321Z,13.40
2019-05-19T00:05:54.313Z,13.70
2019-05-19T00:06:54.303Z,11.00
2019-05-19T00:07:54.327Z,11.50
2019-05-19T00:08:54.279Z,9.40
2019-05-19T00:09:54.278Z,8.70
2019-05-19T00:10:54.267Z,10.40
2019-05-19T00:11:54.245Z,11.30
2019-05-19T00:12:54.249Z,10.50
2019-05-19T00:13:54.241Z,11.10
2019-05-19T00:14:54.214Z,9.20
2019-05-19T00:15:54.200Z,9.20
2019-05-19T00:16:54.191Z,9.00
2019-05-19T00:17:54.179Z,10.30
2019-05-19T00:18:54.168Z,9.50
2019-05-19T00:19:54.157Z,10.50
2019-05-19T00:20:54.148Z,10.20
2019-05-19T00:21:54.131Z,12.70
2019-05-19T00:22:54.119Z,10.00
2019-05-19T00:23:54.109Z,8.10
2019-05-19T00:24:54.105Z,7.80
2019-05-19T00:25:54.085Z,9.40
2019-05-19T00:26:54.080Z,12.70
2019-05-19T00:27:54.078Z,9.30
2019-05-19T00:28:54.059Z,9.70
2019-05-19T00:29:54.046Z,10.80
2019-05-19T00:30:54.043Z,12.20
2019-05-19T00:31:54.023Z,12.60
2019-05-19T00:32:54.011Z,12.90
2019-05-19T00:33:54.008Z,13.10
2019-05-19T00:34:53.986Z,9.70
2019-05-19T00:35:53.977Z,9.10
2019-05-19T00:36:53.968Z,7.50
2019-05-19T00:37:53.966Z,7.20
2019-05-19T00:38:53.951Z,9.90
2019-05-19T00:39:53.941Z,11.50
2019-05-19T00:40:53.936Z,9.60
2019-05-19T00:41:53.911Z,11.90
2019-05-19T00:42:53.905Z,7.60
2019-05-19T00:43:53.889Z,9.10
2019-05-19T00:44:53.879Z,9.30
2019-05-19T00:45:53.870Z,7.90
2019-05-19T00:46:53.854Z,8.50
2019-05-19T00:47:53.846Z,10.00
2019-05-19T00:48:53.835Z,10.60
2019-05-19T00:49:53.823Z,10.10
2019-05-19T00:50:53.832Z,13.40
2019-05-19T00:51:53.805Z,13.80
2019-05-19T00:52:53.797Z,10.40
2019-05-19T00:53:53.774Z,12.10
2019-05-19T00:54:53.768Z,10.10
2019-05-19T00:55:53.755Z,9.70
2019-05-19T00:56:53.743Z,10.20
2019-05-19T00:57:53.735Z,12.30
2019-05-19T00:58:53.717Z,10.20
2019-05-19T00:59:53.707Z,8.80
2019-05-19T01:00:53.699Z,10.70
2019-05-19T01:01:53.689Z,11.60
2019-05-19T01:02:53.683Z,8.30
2019-05-19T01:03:53.669Z,8.30
2019-05-19T01:04:53.651Z,11.00
2019-05-19T01:05:53.646Z,7.60
2019-05-19T01:06:53.639Z,7.50
2019-05-19T01:07:53.624Z,12.30
2019-05-19T01:08:53.612Z,8.40
2019-05-19T01:09:53.609Z,7.00
2019-05-19T01:10:53.593Z,9.80
2019-05-19T01:11:53.585Z,7.90
2019-05-19T01:12:53.563Z,9.00
2019-05-19T01:13:53.579Z,8.00
2019-05-19T01:14:53.543Z,8.10
2019-05-19T01:15:53.538Z,8.80
2019-05-19T01:16:53.518Z,10.00
2019-05-19T01:17:53.511Z,11.80
2019-05-19T01:18:53.502Z,6.80
2019-05-19T01:19:55.944Z,11.30
2019-05-19T01:20:53.480Z,11.90
2019-05-19T01:21:53.463Z,8.70
2019-05-19T01:22:53.453Z,9.30
2019-05-19T01:23:53.464Z,9.10
2019-05-19T01:24:53.425Z,9.30
2019-05-19T01:25:53.419Z,10.00
2019-05-19T01:26:53.409Z,10.00
2019-05-19T01:27:53.402Z,13.50
2019-05-19T01:28:53.385Z,8.10
2019-05-19T01:29:53.370Z,9.30
2019-05-19T01:30:53.365Z,9.80
2019-05-19T01:31:53.350Z,9.30
2019-05-19T01:32:53.339Z,10.20
2019-05-19T01:33:53.334Z,9.80
2019-05-19T01:34:53.325Z,11.50
2019-05-19T01:35:53.319Z,8.40
2019-05-19T01:36:53.300Z,11.00
2019-05-19T01:37:53.292Z,9.80
2019-05-19T01:38:53.274Z,8.40
2019-05-19T01:39:53.265Z,11.30
2019-05-19T01:40:53.259Z,10.10
2019-05-19T01:41:53.241Z,11.20
2019-05-19T01:42:53.259Z,11.70
2019-05-19T01:43:53.221Z,9.40
2019-05-19T01:44:53.238Z,9.60
2019-05-19T01:45:53.196Z,12.00
2019-05-19T01:46:53.305Z,9.20
2019-05-19T01:47:53.174Z,11.90
2019-05-19T01:48:53.162Z,11.30
2019-05-19T01:49:53.159Z,7.40
2019-05-19T01:50:53.144Z,8.80
2019-05-19T01:51:53.127Z,9.70
2019-05-19T01:52:53.127Z,9.80
2019-05-19T01:53:53.108Z,10.90
2019-05-19T01:54:53.121Z,8.50
2019-05-19T01:55:53.083Z,11.40
2019-05-19T01:56:53.074Z,11.10
2019-05-19T01:57:53.074Z,9.40
2019-05-19T01:58:53.048Z,10.40
2019-05-19T01:59:53.043Z,10.40
2019-05-19T02:00:53.034Z,11.40
2019-05-19T02:01:53.020Z,10.20
2019-05-19T02:02:53.004Z,10.20
2019-05-19T02:03:52.992Z,10.70
2019-05-19T02:04:52.983Z,13.10
2019-05-19T02:05:53.013Z,11.80
2019-05-19T02:06:52.960Z,11.40
2019-05-19T02:07:52.948Z,15.40
2019-05-19T02:08:52.962Z,10.80
2019-05-19T02:09:52.929Z,9.10
2019-05-19T02:10:52.920Z,12.20
2019-05-19T02:11:52.909Z,11.30
2019-05-19T02:12:52.894Z,12.70
2019-05-19T02:13:52.885Z,15.90
2019-05-19T02:14:52.877Z,13.60
2019-05-19T02:15:52.863Z,14.80
2019-05-19T02:16:52.851Z,12.40
2019-05-19T02:17:52.836Z,14.20
2019-05-19T02:18:52.834Z,12.50
2019-05-19T02:19:52.827Z,15.50
2019-05-19T02:20:52.805Z,11.40
2019-05-19T02:21:52.798Z,14.40
2019-05-19T02:22:52.783Z,12.40
2019-05-19T02:23:52.770Z,11.20
2019-05-19T02:24:52.762Z,12.00
2019-05-19T02:25:52.762Z,15.60
2019-05-19T02:26:52.740Z,15.00
2019-05-19T02:27:52.727Z,16.00
2019-05-19T02:28:52.714Z,14.90
2019-05-19T02:29:52.705Z,13.80
2019-05-19T02:30:52.693Z,12.70
2019-05-19T02:31:52.687Z,11.30
2019-05-19T02:32:52.676Z,11.00
2019-05-19T02:33:52.680Z,8.60
2019-05-19T02:34:52.667Z,8.60
2019-05-19T02:35:52.649Z,11.00
2019-05-19T02:36:52.626Z,15.00
2019-05-19T02:37:52.616Z,9.90
2019-05-19T02:38:52.603Z,12.80
2019-05-19T02:39:52.587Z,9.70
2019-05-19T02:40:52.588Z,9.00
2019-05-19T02:41:52.586Z,8.60
2019-05-19T02:42:52.583Z,9.40
2019-05-19T02:43:52.548Z,9.20
2019-05-19T02:44:52.534Z,11.10
2019-05-19T02:45:52.525Z,8.80
2019-05-19T02:46:52.514Z,11.00
2019-05-19T02:47:52.501Z,9.00
2019-05-19T02:48:52.499Z,10.60
2019-05-19T02:49:52.484Z,9.40
2019-05-19T02:50:53.068Z,9.80
2019-05-19T02:51:52.458Z,8.80
2019-05-19T02:52:52.484Z,9.90
2019-05-19T02:53:52.431Z,9.50
2019-05-19T02:54:52.422Z,10.70
2019-05-19T02:55:52.413Z,7.80
2019-05-19T02:56:52.401Z,12.20
2019-05-19T02:57:52.394Z,9.20
2019-05-19T02:58:52.377Z,9.10
2019-05-19T02:59:52.370Z,10.30
2019-05-19T03:00:52.357Z,10.40
2019-05-19T03:01:52.355Z,10.80
2019-05-19T03:02:52.340Z,13.40
2019-05-19T03:03:52.329Z,11.00
2019-05-19T03:04:52.321Z,10.00
2019-05-19T03:05:52.303Z,9.20
2019-05-19T03:06:52.287Z,12.90
2019-05-19T03:07:52.281Z,11.00
2019-05-19T03:08:52.287Z,11.30
2019-05-19T03:09:52.265Z,13.30
2019-05-19T03:10:52.248Z,10.40
2019-05-19T03:11:52.236Z,12.00
2019-05-19T03:12:52.230Z,9.40
2019-05-19T03:13:52.215Z,10.70
2019-05-19T03:14:52.202Z,11.30
2019-05-19T03:15:52.193Z,10.40
2019-05-19T03:16:52.180Z,9.80
2019-05-19T03:17:52.165Z,10.50
2019-05-19T03:18:52.159Z,13.40
2019-05-19T03:19:52.147Z,15.40
2019-05-19T03:21:09.413Z,16.00
2019-05-19T03:21:53.122Z,13.60
2019-05-19T03:22:52.114Z,10.90
2019-05-19T03:23:52.102Z,10.60
2019-05-19T03:24:52.090Z,14.40
2019-05-19T03:25:52.082Z,12.00
2019-05-19T03:26:52.066Z,11.00
2019-05-19T03:27:52.065Z,14.30
2019-05-19T03:28:52.056Z,11.30
2019-05-19T03:29:52.039Z,12.40
2019-05-19T03:30:52.049Z,13.80
2019-05-19T03:31:52.022Z,12.60
2019-05-19T03:32:52.003Z,11.50
2019-05-19T03:33:51.991Z,12.00
2019-05-19T03:34:51.977Z,11.40
2019-05-19T03:35:51.976Z,10.40
2019-05-19T03:36:51.955Z,13.20
2019-05-19T03:37:51.947Z,11.40
2019-05-19T03:38:51.937Z,13.30
2019-05-19T03:39:51.934Z,12.30
2019-05-19T03:40:51.913Z,15.70
2019-05-19T03:41:51.905Z,15.80
2019-05-19T03:42:51.890Z,11.00
2019-05-19T03:43:51.875Z,14.30
2019-05-19T03:44:51.864Z,13.50
2019-05-19T03:45:51.851Z,11.50
2019-05-19T03:46:51.842Z,14.60
2019-05-19T03:47:51.835Z,17.30
2019-05-19T03:48:51.822Z,12.30
2019-05-19T03:49:51.813Z,14.50
2019-05-19T03:50:51.805Z,13.30
2019-05-19T03:51:51.795Z,12.40
2019-05-19T03:52:51.781Z,12.80
2019-05-19T03:53:51.773Z,15.70
2019-05-19T03:54:51.756Z,13.30
2019-05-19T03:55:51.757Z,17.40
2019-05-19T03:56:51.733Z,17.30
2019-05-19T03:57:51.725Z,15.30
2019-05-19T03:58:51.709Z,19.30
2019-05-19T03:59:51.709Z,13.40
2019-05-19T04:00:51.688Z,13.50
2019-05-19T04:01:51.680Z,12.80
2019-05-19T04:02:51.667Z,14.60
2019-05-19T04:03:51.651Z,14.20
2019-05-19T04:04:51.646Z,13.80
2019-05-19T04:05:51.636Z,12.50
2019-05-19T04:06:51.625Z,15.30
2019-05-19T04:07:51.606Z,14.60
2019-05-19T04:08:51.598Z,16.90
2019-05-19T04:09:51.588Z,15.90
2019-05-19T04:10:51.578Z,14.90
2019-05-19T04:11:51.562Z,13.20
2019-05-19T04:12:51.553Z,12.90
2019-05-19T04:13:51.541Z,17.20
2019-05-19T04:14:51.532Z,15.50
2019-05-19T04:15:51.516Z,17.90
2019-05-19T04:16:51.516Z,14.60
2019-05-19T04:17:51.496Z,14.00
2019-05-19T04:18:51.492Z,15.60
2019-05-19T04:19:51.478Z,14.50
2019-05-19T04:20:51.463Z,15.70
2019-05-19T04:21:51.451Z,20.70
2019-05-19T04:22:51.454Z,20.90
2019-05-19T04:23:51.430Z,19.50
2019-05-19T04:24:51.420Z,16.80
2019-05-19T04:25:51.407Z,19.00
2019-05-19T04:26:51.402Z,15.70
2019-05-19T04:27:51.383Z,18.60
2019-05-19T04:28:51.380Z,18.50
2019-05-19T04:29:51.364Z,19.20
2019-05-19T04:30:51.354Z,20.00
2019-05-19T04:31:51.353Z,22.10
2019-05-19T04:32:51.332Z,17.90
2019-05-19T04:33:51.319Z,29.90
2019-05-19T04:34:51.314Z,16.40
2019-05-19T04:35:51.302Z,17.40
2019-05-19T04:36:51.293Z,17.30
2019-05-19T04:37:51.275Z,15.80
2019-05-19T04:38:51.259Z,16.80
2019-05-19T04:39:51.251Z,19.20
2019-05-19T04:40:51.241Z,17.40
2019-05-19T04:41:51.234Z,19.80
2019-05-19T04:42:51.217Z,24.10
2019-05-19T04:43:51.210Z,21.50
2019-05-19T04:44:51.249Z,21.50
2019-05-19T04:45:51.186Z,20.90
2019-05-19T04:46:51.176Z,19.40
2019-05-19T04:47:51.165Z,22.70
2019-05-19T04:48:51.148Z,14.60
2019-05-19T04:49:51.183Z,18.20
2019-05-19T04:50:51.154Z,14.00
2019-05-19T04:52:05.515Z,17.20
2019-05-19T04:52:52.103Z,17.10
2019-05-19T04:53:51.093Z,15.50
2019-05-19T04:54:51.084Z,15.50
2019-05-19T04:55:51.071Z,18.50
2019-05-19T04:56:51.065Z,16.90
2019-05-19T04:57:51.048Z,19.20
2019-05-19T04:58:51.036Z,17.80
2019-05-19T04:59:51.056Z,16.00
2019-05-19T05:00:51.019Z,15.90
2019-05-19T05:01:51.009Z,17.20
2019-05-19T05:02:50.994Z,18.40
2019-05-19T05:03:50.982Z,14.60
2019-05-19T05:04:50.970Z,20.40
2019-05-19T05:05:50.960Z,17.20
2019-05-19T05:06:50.952Z,20.20
2019-05-19T05:07:50.939Z,14.90
2019-05-19T05:08:50.928Z,17.50
2019-05-19T05:09:50.917Z,16.80
2019-05-19T05:10:50.945Z,16.70
2019-05-19T05:11:50.895Z,18.20
2019-05-19T05:12:50.885Z,17.60
2019-05-19T05:13:50.873Z,17.20
2019-05-19T05:14:50.862Z,20.40
2019-05-19T05:15:50.847Z,17.00
2019-05-19T05:16:50.837Z,13.10
2019-05-19T05:17:50.826Z,14.90
2019-05-19T05:18:50.819Z,15.10
2019-05-19T05:19:50.810Z,15.60
2019-05-19T05:20:50.809Z,11.70
2019-05-19T05:21:50.787Z,14.40
2019-05-19T05:22:50.770Z,12.40
2019-05-19T05:23:50.761Z,12.80
2019-05-19T05:24:50.760Z,13.70
2019-05-19T05:25:50.744Z,12.60
2019-05-19T05:26:50.735Z,17.70
2019-05-19T05:27:50.716Z,8.60
2019-05-19T05:28:50.706Z,13.50
2019-05-19T05:29:50.695Z,14.80
2019-05-19T05:30:50.693Z,10.70
2019-05-19T05:31:50.677Z,15.00
2019-05-19T05:32:50.662Z,16.00
2019-05-19T05:33:50.655Z,12.80
2019-05-19T05:34:50.640Z,9.30
2019-05-19T05:35:50.628Z,13.70
2019-05-19T05:36:50.616Z,13.60
2019-05-19T05:37:50.604Z,14.60
2019-05-19T05:38:50.606Z,14.10
2019-05-19T05:39:50.586Z,11.20
2019-05-19T05:40:50.572Z,12.70
2019-05-19T05:41:50.563Z,9.20
2019-05-19T05:42:50.562Z,12.20
2019-05-19T05:43:50.541Z,13.40
2019-05-19T05:44:50.529Z,12.40
2019-05-19T05:45:50.513Z,13.90
2019-05-19T05:46:50.504Z,12.70
2019-05-19T05:47:50.507Z,12.20
2019-05-19T05:48:50.535Z,13.10
2019-05-19T05:49:50.476Z,10.60
2019-05-19T05:50:50.468Z,11.70
2019-05-19T05:51:50.458Z,13.90
2019-05-19T05:52:50.440Z,11.80
2019-05-19T05:53:50.424Z,11.10
2019-05-19T05:54:50.415Z,11.20
2019-05-19T05:55:50.404Z,12.90
2019-05-19T05:56:50.398Z,11.40
2019-05-19T05:57:50.383Z,11.10
2019-05-19T05:58:50.375Z,12.30
2019-05-19T05:59:50.362Z,12.30
2019-05-19T06:00:50.351Z,13.80
2019-05-19T06:01:50.337Z,13.60
2019-05-19T06:02:50.330Z,14.70
2019-05-19T06:03:50.314Z,11.00
2019-05-19T06:04:50.317Z,13.80
2019-05-19T06:05:50.298Z,12.60
2019-05-19T06:06:50.289Z,10.90
2019-05-19T06:07:50.273Z,15.20
2019-05-19T06:08:50.265Z,11.10
2019-05-19T06:09:50.256Z,10.90
2019-05-19T06:10:50.245Z,12.90
2019-05-19T06:11:50.227Z,13.50
2019-05-19T06:12:50.213Z,11.40
2019-05-19T06:13:50.213Z,9.80
2019-05-19T06:14:50.195Z,10.70
2019-05-19T06:15:50.186Z,10.70
2019-05-19T06:16:50.179Z,10.30
2019-05-19T06:17:50.175Z,12.30
2019-05-19T06:18:50.155Z,10.20
2019-05-19T06:19:50.149Z,13.20
2019-05-19T06:20:50.132Z,12.40
2019-05-19T06:21:50.116Z,11.40
2019-05-19T06:22:56.700Z,12.50
2019-05-19T06:23:51.099Z,11.40
2019-05-19T06:24:50.087Z,14.70
2019-05-19T06:25:50.073Z,12.00
2019-05-19T06:26:50.071Z,12.10
2019-05-19T06:27:50.054Z,12.80
2019-05-19T06:28:50.042Z,14.90
2019-05-19T06:29:50.080Z,17.50
2019-05-19T06:30:50.025Z,21.60
2019-05-19T06:31:50.048Z,18.50
2019-05-19T06:32:50.003Z,18.80
2019-05-19T06:33:49.990Z,16.90
2019-05-19T06:34:49.995Z,14.90
2019-05-19T06:35:49.968Z,14.20
2019-05-19T06:36:49.950Z,18.70
2019-05-19T06:37:49.950Z,18.90
2019-05-19T06:39:07.761Z,16.70
2019-05-19T06:40:07.639Z,19.70
2019-05-19T06:41:38.209Z,16.20
2019-05-19T06:42:38.177Z,20.80
2019-05-19T06:44:10.744Z,28.10
2019-05-19T06:45:08.717Z,20.20
2019-05-19T06:46:08.713Z,15.50
2019-05-19T06:47:08.706Z,25.50
2019-05-19T06:48:08.698Z,17.60
2019-05-19T06:49:08.677Z,18.90
2019-05-19T06:50:08.681Z,16.80
2019-05-19T06:51:08.654Z,17.30
2019-05-19T06:52:08.642Z,14.70
2019-05-19T06:53:14.219Z,19.00
2019-05-19T06:54:09.636Z,21.30
2019-05-19T06:55:08.615Z,23.50
2019-05-19T06:56:08.604Z,22.80
2019-05-19T06:57:08.599Z,22.10
2019-05-19T06:58:08.590Z,24.30
2019-05-19T06:59:08.567Z,25.70
2019-05-19T07:00:08.565Z,25.00
2019-05-19T07:01:08.548Z,24.40
2019-05-19T07:02:08.539Z,24.40
2019-05-19T07:03:08.559Z,28.70
2019-05-19T07:04:08.523Z,30.20
2019-05-19T07:05:08.500Z,22.50
2019-05-19T07:06:08.489Z,22.00
2019-05-19T07:07:08.578Z,24.00
2019-05-19T07:08:08.477Z,21.50
2019-05-19T07:09:08.713Z,22.50
2019-05-19T07:10:08.466Z,18.50
2019-05-19T07:11:08.434Z,14.70
2019-05-19T07:12:08.422Z,8.30
2019-05-19T07:13:08.408Z,7.20
2019-05-19T07:14:08.401Z,7.10
2019-05-19T07:15:08.401Z,5.90
2019-05-19T07:16:08.388Z,5.50
2019-05-19T07:17:08.363Z,5.70
2019-05-19T07:18:08.357Z,6.30
2019-05-19T07:19:08.342Z,5.00
2019-05-19T07:20:08.348Z,5.60
2019-05-19T07:21:08.324Z,6.50
2019-05-19T07:22:08.302Z,5.70
2019-05-19T07:23:08.287Z,6.00
2019-05-19T07:24:08.288Z,10.30
2019-05-19T07:25:08.269Z,6.20
2019-05-19T07:26:08.259Z,6.70
2019-05-19T07:27:08.257Z,7.50
2019-05-19T07:28:08.244Z,6.20
2019-05-19T07:29:08.238Z,4.50
2019-05-19T07:30:08.217Z,4.50
2019-05-19T07:31:08.246Z,2.30
2019-05-19T07:32:08.218Z,2.40
2019-05-19T07:33:08.194Z,3.20
2019-05-19T07:34:08.183Z,2.80
2019-05-19T07:35:08.168Z,3.70
2019-05-19T07:36:08.152Z,3.10
2019-05-19T07:37:08.141Z,2.20
2019-05-19T07:38:08.131Z,2.40
2019-05-19T07:39:08.129Z,3.30
2019-05-19T07:40:08.105Z,2.70
2019-05-19T07:41:08.113Z,2.20
2019-05-19T07:42:08.108Z,3.40
2019-05-19T07:43:08.076Z,2.50
2019-05-19T07:44:08.075Z,2.70
2019-05-19T07:45:08.081Z,2.30
2019-05-19T07:46:08.065Z,2.30
2019-05-19T07:47:08.036Z,2.70
2019-05-19T07:48:08.020Z,3.10
2019-05-19T07:49:08.009Z,4.10
2019-05-19T07:50:07.996Z,4.60
2019-05-19T07:51:08.005Z,7.10
2019-05-19T07:52:07.987Z,3.90
2019-05-19T07:53:07.972Z,5.90
2019-05-19T07:54:07.960Z,5.30
2019-05-19T07:55:07.946Z,3.60
2019-05-19T07:56:07.927Z,5.60
2019-05-19T07:57:07.919Z,5.10
2019-05-19T07:58:07.925Z,5.00
2019-05-19T07:59:08.180Z,7.10
2019-05-19T08:00:08.160Z,3.50
2019-05-19T08:01:07.877Z,7.70
2019-05-19T08:02:07.860Z,4.80
2019-05-19T08:03:07.885Z,3.90
2019-05-19T08:04:07.874Z,2.40
2019-05-19T08:05:07.839Z,3.90
2019-05-19T08:06:07.883Z,3.50
2019-05-19T08:07:07.830Z,2.50
2019-05-19T08:08:07.806Z,5.50
2019-05-19T08:09:07.789Z,6.30
2019-05-19T08:10:07.783Z,5.20
2019-05-19T08:11:07.790Z,3.90
2019-05-19T08:12:07.754Z,4.80
2019-05-19T08:13:07.738Z,4.00
2019-05-19T08:14:07.743Z,3.80
2019-05-19T08:15:07.727Z,4.40
2019-05-19T08:16:07.729Z,4.00
2019-05-19T08:17:07.710Z,6.50
2019-05-19T08:18:07.689Z,3.60
2019-05-19T08:19:07.671Z,6.40
2019-05-19T08:20:07.664Z,8.90
2019-05-19T08:21:07.670Z,9.20
2019-05-19T08:22:07.643Z,7.60
2019-05-19T08:23:07.646Z,8.60
2019-05-19T08:24:07.617Z,4.70
2019-05-19T08:25:07.595Z,5.80
2019-05-19T08:26:07.588Z,5.30
2019-05-19T08:27:07.594Z,4.20
2019-05-19T08:28:08.971Z,6.10
2019-05-19T08:29:07.571Z,6.30
2019-05-19T08:30:07.553Z,4.20
2019-05-19T08:31:07.545Z,5.50
2019-05-19T08:32:07.528Z,4.70
2019-05-19T08:33:07.522Z,2.90
2019-05-19T08:34:07.794Z,7.30
2019-05-19T08:35:07.514Z,6.20
2019-05-19T08:36:07.490Z,4.60
2019-05-19T08:37:07.473Z,7.70
2019-05-19T08:38:07.455Z,7.50
2019-05-19T08:39:07.451Z,7.00
2019-05-19T08:40:07.431Z,7.90
2019-05-19T08:41:07.431Z,6.40
2019-05-19T08:42:07.407Z,19.90
2019-05-19T08:43:07.399Z,16.20
2019-05-19T08:44:07.386Z,9.90
2019-05-19T08:45:07.387Z,5.20
2019-05-19T08:46:07.369Z,9.30
2019-05-19T08:47:07.352Z,9.20
2019-05-19T08:48:07.344Z,6.50
2019-05-19T08:49:07.333Z,4.60
2019-05-19T08:50:07.331Z,6.10
2019-05-19T08:51:07.307Z,10.00
2019-05-19T08:52:07.306Z,4.40
2019-05-19T08:53:07.289Z,8.30
2019-05-19T08:54:14.927Z,3.40
2019-05-19T08:55:08.266Z,3.80
2019-05-19T08:56:07.266Z,4.20
2019-05-19T08:57:07.254Z,3.10
2019-05-19T08:58:07.244Z,4.50
2019-05-19T08:59:07.224Z,5.30
2019-05-19T09:00:07.220Z,5.90
2019-05-19T09:01:07.199Z,6.50
2019-05-19T09:02:07.191Z,5.70
2019-05-19T09:03:07.176Z,6.50
2019-05-19T09:04:07.172Z,5.90
2019-05-19T09:05:07.177Z,10.40
2019-05-19T09:06:07.152Z,5.80
2019-05-19T09:07:07.128Z,3.40
2019-05-19T09:08:07.117Z,5.40
2019-05-19T09:09:07.118Z,6.90
2019-05-19T09:10:07.106Z,3.10
2019-05-19T09:11:07.084Z,3.50
2019-05-19T09:12:07.079Z,4.90
2019-05-19T09:13:07.070Z,5.70
2019-05-19T09:14:07.056Z,5.60
2019-05-19T09:15:07.049Z,7.50
2019-05-19T09:16:07.039Z,6.90
2019-05-19T09:17:07.033Z,6.00
2019-05-19T09:18:07.012Z,7.00
2019-05-19T09:19:07.007Z,11.50
2019-05-19T09:20:06.996Z,19.20
2019-05-19T09:21:06.973Z,9.20
2019-05-19T09:22:06.970Z,22.20
2019-05-19T09:23:06.962Z,12.20
2019-05-19T09:24:06.942Z,7.70
2019-05-19T09:25:06.936Z,10.90
2019-05-19T09:26:06.926Z,2.80
2019-05-19T09:27:06.914Z,4.80
2019-05-19T09:28:06.897Z,2.30
2019-05-19T09:29:06.892Z,3.40
2019-05-19T09:30:06.874Z,3.70
2019-05-19T09:31:06.869Z,4.30
2019-05-19T09:32:06.853Z,3.70
2019-05-19T09:33:06.845Z,4.70
2019-05-19T09:34:06.831Z,5.90
2019-05-19T09:35:06.821Z,2.20
2019-05-19T09:36:06.810Z,3.30
2019-05-19T09:37:06.810Z,3.80
2019-05-19T09:38:06.795Z,2.50
2019-05-19T09:39:06.781Z,2.10
2019-05-19T09:40:06.772Z,5.70
2019-05-19T09:41:06.778Z,2.60
2019-05-19T09:42:06.740Z,1.80
2019-05-19T09:43:06.736Z,1.80
2019-05-19T09:44:06.725Z,2.50
2019-05-19T09:45:06.718Z,2.10
2019-05-19T09:46:06.712Z,2.10
2019-05-19T09:47:06.688Z,2.50
2019-05-19T09:48:06.679Z,2.10
2019-05-19T09:49:06.674Z,16.70
2019-05-19T09:50:06.661Z,2.00
2019-05-19T09:51:06.648Z,2.70
2019-05-19T09:52:06.642Z,1.70
2019-05-19T09:53:06.621Z,2.40
2019-05-19T09:54:06.626Z,1.90
2019-05-19T09:55:06.607Z,2.10
2019-05-19T09:56:06.594Z,2.50
2019-05-19T09:57:06.585Z,1.80
2019-05-19T09:58:06.615Z,2.00
2019-05-19T09:59:06.567Z,1.90
2019-05-19T10:00:06.599Z,2.00
2019-05-19T10:01:06.575Z,2.40
2019-05-19T10:02:06.574Z,3.10
2019-05-19T10:03:06.545Z,3.40
2019-05-19T10:04:07.149Z,3.30
2019-05-19T10:05:06.519Z,3.20
2019-05-19T10:06:06.495Z,2.60
2019-05-19T10:07:07.259Z,2.60
2019-05-19T10:08:06.465Z,3.70
2019-05-19T10:09:06.463Z,5.30
2019-05-19T10:10:06.444Z,2.40
2019-05-19T10:11:06.429Z,4.50
2019-05-19T10:12:06.424Z,2.70
2019-05-19T10:13:06.410Z,3.50
2019-05-19T10:14:06.407Z,3.00
2019-05-19T10:15:06.394Z,5.60
2019-05-19T10:16:06.376Z,3.70
2019-05-19T10:17:06.405Z,2.70
2019-05-19T10:18:06.359Z,2.50
2019-05-19T10:19:06.343Z,3.00
2019-05-19T10:20:06.332Z,2.00
2019-05-19T10:21:06.324Z,2.80
2019-05-19T10:22:06.309Z,2.10
2019-05-19T10:23:06.299Z,2.30
2019-05-19T10:24:06.283Z,3.20
2019-05-19T10:25:20.878Z,1.30
2019-05-19T10:26:07.270Z,3.00
2019-05-19T10:27:06.258Z,1.40
2019-05-19T10:28:06.242Z,1.70
2019-05-19T10:29:06.237Z,4.70
2019-05-19T10:30:06.223Z,1.20
2019-05-19T10:31:06.218Z,1.40
2019-05-19T10:32:06.205Z,1.50
2019-05-19T10:33:06.192Z,1.20
2019-05-19T10:34:06.187Z,1.90
2019-05-19T10:35:06.172Z,2.20
2019-05-19T10:36:06.153Z,1.10
2019-05-19T10:37:06.149Z,1.20
2019-05-19T10:38:06.140Z,1.70
2019-05-19T10:39:06.124Z,1.40
2019-05-19T10:40:06.119Z,1.20
2019-05-19T10:41:06.115Z,2.00
2019-05-19T10:42:06.147Z,1.70
2019-05-19T10:43:06.081Z,2.00
2019-05-19T10:44:06.071Z,2.50
2019-05-19T10:45:06.077Z,2.70
2019-05-19T10:46:06.048Z,2.00
2019-05-19T10:47:06.190Z,1.70
2019-05-19T10:48:06.030Z,123.10
2019-05-19T10:49:06.018Z,49.80
2019-05-19T10:50:06.003Z,46.10
2019-05-19T10:51:05.990Z,52.80
2019-05-19T10:52:05.979Z,2.10
2019-05-19T10:53:05.970Z,2.10
2019-05-19T10:54:05.964Z,1.60
2019-05-19T10:55:05.958Z,1.50
2019-05-19T10:56:05.940Z,1.80
2019-05-19T10:57:05.952Z,2.00
2019-05-19T10:58:05.976Z,1.80
2019-05-19T10:59:05.912Z,1.90
2019-05-19T11:00:05.898Z,1.90
2019-05-19T11:01:05.890Z,1.80
2019-05-19T11:02:05.888Z,2.00
2019-05-19T11:03:05.869Z,2.60
2019-05-19T11:04:05.855Z,2.00
2019-05-19T11:05:05.874Z,1.90
2019-05-19T11:06:05.840Z,2.30
2019-05-19T11:07:05.820Z,2.20
2019-05-19T11:08:05.802Z,3.10
2019-05-19T11:09:05.799Z,2.30
2019-05-19T11:10:05.789Z,2.20
2019-05-19T11:11:05.772Z,1.70
2019-05-19T11:12:05.784Z,2.00
2019-05-19T11:13:05.751Z,2.10
2019-05-19T11:14:05.740Z,2.60
2019-05-19T11:15:05.786Z,2.60
2019-05-19T11:16:05.716Z,2.30
2019-05-19T11:17:05.716Z,5.90
2019-05-19T11:18:06.536Z,2.50
2019-05-19T11:19:05.692Z,3.20
2019-05-19T11:20:05.687Z,2.60
2019-05-19T11:21:05.668Z,3.70
2019-05-19T11:22:05.657Z,2.60
2019-05-19T11:23:05.653Z,2.40
2019-05-19T11:24:05.630Z,3.50
2019-05-19T11:25:05.616Z,2.30
2019-05-19T11:26:05.675Z,2.80
2019-05-19T11:27:05.595Z,4.50
2019-05-19T11:28:05.586Z,2.90
2019-05-19T11:29:05.581Z,5.10
2019-05-19T11:30:05.573Z,2.30
2019-05-19T11:31:05.553Z,3.10
2019-05-19T11:32:05.547Z,1.70
2019-05-19T11:33:05.530Z,1.60
2019-05-19T11:34:05.534Z,2.90
2019-05-19T11:35:05.516Z,2.10
2019-05-19T11:36:05.495Z,3.50
2019-05-19T11:37:07.477Z,1.60
2019-05-19T11:38:05.504Z,1.70
2019-05-19T11:39:05.467Z,1.30
2019-05-19T11:40:05.464Z,1.80
2019-05-19T11:41:05.443Z,1.80
2019-05-19T11:42:05.449Z,1.80
2019-05-19T11:43:05.424Z,2.20
2019-05-19T11:44:05.407Z,2.50
2019-05-19T11:45:05.399Z,1.60
2019-05-19T11:46:05.391Z,1.50
2019-05-19T11:47:05.393Z,1.50
2019-05-19T11:48:05.375Z,2.00
2019-05-19T11:49:05.362Z,1.30
2019-05-19T11:50:05.347Z,1.50
2019-05-19T11:51:05.329Z,1.50
2019-05-19T11:52:05.359Z,1.40
2019-05-19T11:53:05.313Z,2.10
2019-05-19T11:54:05.303Z,2.90
2019-05-19T11:55:05.294Z,2.00
2019-05-19T11:56:07.299Z,1.60
2019-05-19T11:57:06.270Z,6.20
2019-05-19T11:58:05.274Z,2.10
2019-05-19T11:59:05.248Z,1.20
2019-05-19T12:00:05.240Z,2.00
2019-05-19T12:01:05.230Z,1.30
2019-05-19T12:02:05.216Z,1.90
2019-05-19T12:03:05.203Z,4.10
2019-05-19T12:04:05.694Z,2.60
2019-05-19T12:05:05.185Z,2.10
2019-05-19T12:06:05.182Z,1.50
2019-05-19T12:07:05.158Z,1.20
2019-05-19T12:08:05.163Z,2.40
2019-05-19T12:09:05.137Z,1.50
2019-05-19T12:10:05.127Z,2.80
2019-05-19T12:11:05.110Z,2.10
2019-05-19T12:12:05.112Z,1.90
2019-05-19T12:13:05.100Z,2.30
2019-05-19T12:14:05.080Z,2.70
2019-05-19T12:15:05.073Z,1.40
2019-05-19T12:16:05.057Z,2.00
2019-05-19T12:17:05.057Z,1.90
2019-05-19T12:18:05.040Z,1.80
2019-05-19T12:19:05.027Z,3.10
2019-05-19T12:20:05.017Z,3.60
2019-05-19T12:21:05.011Z,4.20
2019-05-19T12:22:05.010Z,1.20
2019-05-19T12:23:04.994Z,1.70
2019-05-19T12:24:05.003Z,1.80
2019-05-19T12:25:04.956Z,3.10
2019-05-19T12:26:04.942Z,4.00
2019-05-19T12:27:04.932Z,3.10
2019-05-19T12:28:04.932Z,2.60
2019-05-19T12:29:04.912Z,1.60
2019-05-19T12:30:04.902Z,1.80
2019-05-19T12:31:04.889Z,3.60
2019-05-19T12:32:04.897Z,3.10
2019-05-19T12:33:04.868Z,2.60
2019-05-19T12:34:04.864Z,2.30
2019-05-19T12:35:04.845Z,2.10
2019-05-19T12:36:04.847Z,2.30
2019-05-19T12:37:04.831Z,2.70
2019-05-19T12:38:04.816Z,4.20
2019-05-19T12:39:04.804Z,2.20
2019-05-19T12:40:04.816Z,3.00
2019-05-19T12:41:04.775Z,3.40
2019-05-19T12:42:04.772Z,3.20
2019-05-19T12:43:04.775Z,3.10
2019-05-19T12:44:04.753Z,2.10
2019-05-19T12:45:04.732Z,2.70
2019-05-19T12:46:14.876Z,1.90
2019-05-19T12:47:05.706Z,2.90
2019-05-19T12:48:04.707Z,1.40
2019-05-19T12:49:04.701Z,1.80
2019-05-19T12:50:04.705Z,2.70
2019-05-19T12:51:04.672Z,2.20
2019-05-19T12:52:04.657Z,1.90
2019-05-19T12:53:04.662Z,1.20
2019-05-19T12:54:04.669Z,1.70
2019-05-19T12:55:04.636Z,1.70
2019-05-19T12:56:04.625Z,1.20
2019-05-19T12:57:04.602Z,1.30
2019-05-19T12:58:04.590Z,1.50
2019-05-19T12:59:04.574Z,1.90
2019-05-19T13:00:04.573Z,1.50
2019-05-19T13:01:04.557Z,1.70
2019-05-19T13:02:04.556Z,0.80
2019-05-19T13:03:04.546Z,1.00
2019-05-19T13:04:04.533Z,1.80
2019-05-19T13:05:06.095Z,1.40
2019-05-19T13:06:04.554Z,1.00
2019-05-19T13:07:04.530Z,1.00
2019-05-19T13:08:04.495Z,0.90